Time;durP1;ratioP1;P1;durP2;ratioP2;P2;SDS_P1;SDS_P2;PMS_P1;PMS_P2;Temp;Humidity;BMP_temperature;BMP_pressure;BME280_temperature;BME280_humidity;BME280_pressure;Samples;Min_cycle;Max_cycle;Signal;HPM_P1;HPM_P2
2022/04/05 00:25:06;;;;;;;;;;;;;;;;;;;;;
2022/04/05 01:03:43;;;;;;;;;;;;;;;;;;;;;
2022/04/05 04:09:11;;;;;;;;;;;;;;;;;;;;;
2022/04/05 04:33:24;;;;;;;;;;;;;;;;;;;;;
2022/04/05 04:36:26;;;;;;;13.98;8.05;;;7.60;99.90;;;;;;4822749;29;20104;-90
2022/04/05 04:45:45;;;;;;;17.00;8.05;;;7.50;99.90;;;;;;4844782;29;20044;-89
2022/04/05 04:48:45;;;;;;;16.60;7.70;;;7.40;99.90;;;;;;4853347;29;20038;-90
2022/04/05 04:55:22;;;;;;;14.90;8.20;;;7.30;99.90;;;;;;4790219;29;20133;-90
2022/04/05 05:01:28;;;;;;;15.43;8.27;;;7.20;99.90;;;;;;4843335;29;20467;-94
2022/04/05 05:04:48;;;;;;;16.52;7.93;;;7.20;99.90;;;;;;4843664;29;20029;-96
2022/04/05 05:11:06;;;;;;;11.50;6.72;;;7.30;99.90;;;;;;4876262;29;20073;-88
2022/04/05 05:13:35;;;;;;;;;;;7.50;99.90;;;;;;4881245;29;20049;-87
2022/04/05 05:16:03;;;;;;;15.23;7.53;;;7.60;99.90;;;;;;4927911;29;19950;-83
2022/04/05 05:18:53;;;;;;;15.77;7.93;;;7.70;99.90;;;;;;4956540;28;20043;-92
2022/04/05 05:21:40;;;;;;;14.02;7.35;;;7.90;99.90;;;;;;4944462;28;20051;-83
2022/04/05 05:24:38;;;;;;;;;;;;;;;;;;;;;
2022/04/05 05:27:03;;;;;;;11.63;7.10;;;8.10;99.90;;;;;;4953075;28;20411;-87
2022/04/05 05:29:51;;;;;;;16.10;7.15;;;8.20;99.90;;;;;;4938747;29;20461;-87
2022/04/05 05:32:22;;;;;;;12.90;6.65;;;8.30;99.90;;;;;;4952623;29;20039;-86
2022/04/05 05:35:03;;;;;;;15.20;6.55;;;8.50;99.90;;;;;;4940297;28;20029;-86
2022/04/05 05:37:39;;;;;;;12.25;6.03;;;8.60;99.90;;;;;;4937232;29;20027;-87
2022/04/05 05:40:11;;;;;;;8.30;6.13;;;8.80;99.90;;;;;;4955802;29;20023;-88
2022/04/05 05:43:17;;;;;;;9.68;5.72;;;8.90;99.90;;;;;;4937538;28;20154;-88
2022/04/05 05:45:56;;;;;;;9.68;5.57;;;8.90;99.90;;;;;;4939677;29;20055;-86
2022/04/05 05:49:08;;;;;;;13.00;6.35;;;8.90;99.90;;;;;;4958722;28;20034;-90
2022/04/05 05:51:46;;;;;;;8.30;6.57;;;8.90;99.90;;;;;;4925360;28;20419;-89
2022/04/05 05:54:24;;;;;;;10.25;6.82;;;8.90;99.90;;;;;;4968039;28;20028;-89
2022/04/05 05:56:58;;;;;;;15.57;6.13;;;9.10;99.90;;;;;;4947843;29;20040;-89
2022/04/05 05:59:28;;;;;;;9.30;6.55;;;9.20;99.90;;;;;;4940782;29;20024;-89
2022/04/05 06:05:55;;;;;;;10.57;5.95;;;9.60;99.90;;;;;;4934789;29;20048;-95
2022/04/05 06:09:03;;;;;;;11.18;6.40;;;9.70;99.90;;;;;;4959071;29;20027;-93
2022/04/05 06:11:45;;;;;;;11.23;5.70;;;9.70;99.90;;;;;;5014414;23;20057;-93
2022/04/05 06:14:20;;;;;;;11.90;5.90;;;9.60;99.90;;;;;;4945916;28;20043;-91
2022/04/05 06:17:14;;;;;;;11.70;5.25;;;9.50;99.90;;;;;;4977391;28;20055;-91
2022/04/05 06:19:40;;;;;;;9.23;5.72;;;9.50;99.90;;;;;;4995804;28;20025;-91
2022/04/05 06:22:06;;;;;;;19.02;6.45;;;9.50;99.90;;;;;;4960816;28;20043;-92
2022/04/05 06:24:49;;;;;;;13.93;6.03;;;9.40;99.90;;;;;;4996537;28;20113;-93
2022/04/05 06:31:05;;;;;;;7.63;6.13;;;9.40;99.90;;;;;;4923479;29;20055;-84
2022/04/05 06:33:34;;;;;;;16.15;6.53;;;9.40;99.90;;;;;;4937328;28;20054;-90
2022/04/05 06:36:32;;;;;;;11.93;6.95;;;9.40;99.90;;;;;;4941127;29;20065;-92
2022/04/05 06:39:13;;;;;;;11.25;6.45;;;9.30;99.90;;;;;;4935036;28;20046;-89
2022/04/05 06:41:40;;;;;;;8.02;6.00;;;9.40;99.90;;;;;;4940822;28;20053;-87
2022/04/05 06:44:32;;;;;;;10.23;6.20;;;9.40;99.90;;;;;;4982347;28;20023;-89
2022/04/05 06:47:15;;;;;;;10.85;5.68;;;9.50;99.90;;;;;;4971329;28;20038;-89
2022/04/05 06:49:41;;;;;;;21.35;5.95;;;9.60;99.90;;;;;;4966107;28;20054;-90
2022/04/05 06:52:29;;;;;;;11.25;7.00;;;9.70;99.90;;;;;;4993302;28;20037;-89
2022/04/05 06:54:58;;;;;;;12.85;6.55;;;9.80;99.90;;;;;;4958318;28;20050;-93
2022/04/05 06:57:37;;;;;;;10.50;6.43;;;9.90;99.90;;;;;;4991346;28;20033;-93
2022/04/05 07:00:23;;;;;;;14.13;9.18;;;10.10;99.90;;;;;;4978275;28;20023;-92
2022/04/05 07:03:30;;;;;;;11.60;7.18;;;10.20;99.90;;;;;;4965969;28;20543;-93
2022/04/05 07:05:57;;;;;;;11.07;5.68;;;10.30;99.90;;;;;;4965474;28;20501;-92
2022/04/05 07:08:49;;;;;;;11.75;6.70;;;10.40;99.90;;;;;;4968474;28;20107;-94
2022/04/05 07:11:35;;;;;;;10.70;8.50;;;10.60;99.90;;;;;;4968321;28;20058;-93
2022/04/05 07:14:14;;;;;;;10.38;6.70;;;10.70;99.90;;;;;;4973332;28;20082;-87
2022/04/05 07:16:43;;;;;;;11.82;6.18;;;10.80;99.90;;;;;;4988601;28;20031;-88
2022/04/05 07:19:17;;;;;;;13.00;6.70;;;10.90;99.90;;;;;;4971012;28;20767;-87
2022/04/05 07:21:46;;;;;;;12.35;7.35;;;11.00;99.90;;;;;;4985471;28;20034;-91
2022/04/05 07:24:21;;;;;;;8.68;5.85;;;11.00;99.90;;;;;;4975150;28;20026;-92
2022/04/05 07:26:51;;;;;;;12.20;7.38;;;11.10;99.90;;;;;;4970606;28;20034;-90
2022/04/05 07:29:26;;;;;;;11.00;7.18;;;11.20;99.90;;;;;;4977974;28;20497;-94
2022/04/05 07:31:52;;;;;;;10.73;6.18;;;11.20;99.90;;;;;;4961650;28;20445;-88
2022/04/05 07:34:21;;;;;;;11.10;7.47;;;11.20;99.90;;;;;;4976331;28;20073;-94
2022/04/05 07:40:47;;;;;;;10.05;6.60;;;11.30;99.90;;;;;;4965738;28;20096;-92
2022/04/05 07:43:11;;;;;;;9.88;6.80;;;11.40;99.90;;;;;;4948573;28;20156;-86
2022/04/05 07:45:44;;;;;;;11.82;7.40;;;11.40;99.90;;;;;;4969916;28;20038;-88
2022/04/05 07:48:15;;;;;;;8.43;7.13;;;11.30;99.90;;;;;;4971375;28;20034;-89
